sensor_id;sensor_type;location;lat;lon;timestamp;P1;durP1;ratioP1;P2;durP2;ratioP2
41705;SDS011;27385;51.096;17.190;2022-12-08T00:02:19;33.00;;;8.90;;
41705;SDS011;27385;51.096;17.190;2022-12-08T00:04:50;21.20;;;7.70;;
41705;SDS011;27385;51.096;17.190;2022-12-08T00:07:40;25.90;;;6.70;;
41705;SDS011;27385;51.096;17.190;2022-12-08T00:10:30;20.10;;;5.40;;
41705;SDS011;27385;51.096;17.190;2022-12-08T00:13:01;24.90;;;7.00;;
41705;SDS011;27385;51.096;17.190;2022-12-08T00:15:33;24.00;;;6.30;;
41705;SDS011;27385;51.096;17.190;2022-12-08T00:18:06;17.80;;;5.90;;
41705;SDS011;27385;51.096;17.190;2022-12-08T00:20:38;20.90;;;5.80;;
41705;SDS011;27385;51.096;17.190;2022-12-08T00:23:09;22.90;;;7.10;;
41705;SDS011;27385;51.096;17.190;2022-12-08T00:25:41;19.40;;;6.30;;
41705;SDS011;27385;51.096;17.190;2022-12-08T00:28:12;24.00;;;6.80;;
41705;SDS011;27385;51.096;17.190;2022-12-08T00:30:44;20.00;;;6.10;;
41705;SDS011;27385;51.096;17.190;2022-12-08T00:33:15;23.40;;;6.50;;
41705;SDS011;27385;51.096;17.190;2022-12-08T00:35:46;26.00;;;6.90;;
41705;SDS011;27385;51.096;17.190;2022-12-08T00:38:18;20.70;;;6.60;;
41705;SDS011;27385;51.096;17.190;2022-12-08T00:40:52;21.70;;;6.90;;
41705;SDS011;27385;51.096;17.190;2022-12-08T00:43:24;21.60;;;6.70;;
41705;SDS011;27385;51.096;17.190;2022-12-08T00:45:55;23.70;;;6.70;;
41705;SDS011;27385;51.096;17.190;2022-12-08T00:48:26;22.30;;;6.20;;
41705;SDS011;27385;51.096;17.190;2022-12-08T00:50:58;23.70;;;7.10;;
41705;SDS011;27385;51.096;17.190;2022-12-08T00:53:30;18.40;;;5.50;;
41705;SDS011;27385;51.096;17.190;2022-12-08T00:56:01;18.00;;;5.00;;
41705;SDS011;27385;51.096;17.190;2022-12-08T00:58:33;20.40;;;5.20;;
41705;SDS011;27385;51.096;17.190;2022-12-08T01:01:10;17.90;;;5.00;;
41705;SDS011;27385;51.096;17.190;2022-12-08T01:03:42;23.10;;;5.50;;
41705;SDS011;27385;51.096;17.190;2022-12-08T01:06:15;23.50;;;6.00;;
41705;SDS011;27385;51.096;17.190;2022-12-08T01:08:46;22.60;;;7.40;;
41705;SDS011;27385;51.096;17.190;2022-12-08T01:11:18;23.50;;;6.50;;
41705;SDS011;27385;51.096;17.190;2022-12-08T01:13:49;30.90;;;7.70;;
41705;SDS011;27385;51.096;17.190;2022-12-08T01:16:22;26.90;;;9.00;;
41705;SDS011;27385;51.096;17.190;2022-12-08T01:18:55;26.30;;;8.20;;
41705;SDS011;27385;51.096;17.190;2022-12-08T01:21:28;19.50;;;6.20;;
41705;SDS011;27385;51.096;17.190;2022-12-08T01:23:59;18.50;;;6.10;;
41705;SDS011;27385;51.096;17.190;2022-12-08T01:26:32;21.70;;;6.20;;
41705;SDS011;27385;51.096;17.190;2022-12-08T01:29:03;19.20;;;6.20;;
41705;SDS011;27385;51.096;17.190;2022-12-08T01:31:35;23.10;;;8.00;;
41705;SDS011;27385;51.096;17.190;2022-12-08T01:34:07;23.30;;;8.00;;
41705;SDS011;27385;51.096;17.190;2022-12-08T01:36:40;24.20;;;7.00;;
41705;SDS011;27385;51.096;17.190;2022-12-08T01:39:14;24.50;;;7.40;;
41705;SDS011;27385;51.096;17.190;2022-12-08T01:41:46;23.90;;;8.10;;
41705;SDS011;27385;51.096;17.190;2022-12-08T01:47:25;19.40;;;5.30;;
41705;SDS011;27385;51.096;17.190;2022-12-08T01:50:01;21.30;;;6.50;;
41705;SDS011;27385;51.096;17.190;2022-12-08T01:52:35;22.60;;;7.00;;
41705;SDS011;27385;51.096;17.190;2022-12-08T01:55:11;21.30;;;5.90;;
41705;SDS011;27385;51.096;17.190;2022-12-08T01:57:47;21.30;;;6.70;;
41705;SDS011;27385;51.096;17.190;2022-12-08T02:00:22;22.60;;;6.70;;
41705;SDS011;27385;51.096;17.190;2022-12-08T02:02:56;22.80;;;7.40;;
41705;SDS011;27385;51.096;17.190;2022-12-08T02:05:31;19.10;;;6.60;;
41705;SDS011;27385;51.096;17.190;2022-12-08T02:08:06;19.80;;;6.40;;
41705;SDS011;27385;51.096;17.190;2022-12-08T02:10:40;18.70;;;5.80;;
41705;SDS011;27385;51.096;17.190;2022-12-08T02:13:13;16.00;;;4.70;;
41705;SDS011;27385;51.096;17.190;2022-12-08T02:15:47;20.30;;;6.10;;
41705;SDS011;27385;51.096;17.190;2022-12-08T02:18:31;18.80;;;6.10;;
41705;SDS011;27385;51.096;17.190;2022-12-08T02:21:11;19.00;;;6.60;;
41705;SDS011;27385;51.096;17.190;2022-12-08T02:23:50;20.80;;;5.90;;
41705;SDS011;27385;51.096;17.190;2022-12-08T02:29:42;19.60;;;6.20;;
41705;SDS011;27385;51.096;17.190;2022-12-08T02:32:36;17.20;;;5.70;;
41705;SDS011;27385;51.096;17.190;2022-12-08T02:35:25;15.60;;;5.90;;
41705;SDS011;27385;51.096;17.190;2022-12-08T02:38:05;21.60;;;5.80;;
41705;SDS011;27385;51.096;17.190;2022-12-08T02:40:46;15.30;;;4.80;;
41705;SDS011;27385;51.096;17.190;2022-12-08T02:43:25;17.60;;;4.70;;
41705;SDS011;27385;51.096;17.190;2022-12-08T02:46:04;18.60;;;4.80;;
41705;SDS011;27385;51.096;17.190;2022-12-08T02:51:14;14.90;;;4.20;;
41705;SDS011;27385;51.096;17.190;2022-12-08T02:53:46;18.70;;;5.30;;
41705;SDS011;27385;51.096;17.190;2022-12-08T02:56:21;19.10;;;5.30;;
41705;SDS011;27385;51.096;17.190;2022-12-08T02:59:11;16.50;;;4.90;;
41705;SDS011;27385;51.096;17.190;2022-12-08T03:02:04;19.40;;;5.90;;
41705;SDS011;27385;51.096;17.190;2022-12-08T03:04:59;22.20;;;6.80;;
41705;SDS011;27385;51.096;17.190;2022-12-08T03:07:39;20.90;;;6.40;;
41705;SDS011;27385;51.096;17.190;2022-12-08T03:10:17;21.20;;;7.00;;
41705;SDS011;27385;51.096;17.190;2022-12-08T03:12:57;18.90;;;5.60;;
41705;SDS011;27385;51.096;17.190;2022-12-08T03:15:31;24.20;;;6.90;;
41705;SDS011;27385;51.096;17.190;2022-12-08T03:18:07;20.40;;;6.40;;
41705;SDS011;27385;51.096;17.190;2022-12-08T03:20:43;23.70;;;6.90;;
41705;SDS011;27385;51.096;17.190;2022-12-08T03:23:17;17.40;;;5.40;;
41705;SDS011;27385;51.096;17.190;2022-12-08T03:25:51;21.40;;;6.80;;
41705;SDS011;27385;51.096;17.190;2022-12-08T03:28:29;21.70;;;6.80;;
41705;SDS011;27385;51.096;17.190;2022-12-08T03:31:01;24.00;;;6.10;;
41705;SDS011;27385;51.096;17.190;2022-12-08T03:33:38;22.40;;;7.50;;
41705;SDS011;27385;51.096;17.190;2022-12-08T03:36:12;24.00;;;7.80;;
41705;SDS011;27385;51.096;17.190;2022-12-08T03:38:44;18.70;;;6.50;;
41705;SDS011;27385;51.096;17.190;2022-12-08T03:41:19;23.80;;;7.20;;
41705;SDS011;27385;51.096;17.190;2022-12-08T03:43:52;22.70;;;6.90;;
41705;SDS011;27385;51.096;17.190;2022-12-08T03:46:26;20.80;;;6.90;;
41705;SDS011;27385;51.096;17.190;2022-12-08T03:48:58;22.50;;;6.90;;
41705;SDS011;27385;51.096;17.190;2022-12-08T03:51:30;20.80;;;6.70;;
41705;SDS011;27385;51.096;17.190;2022-12-08T03:54:01;17.60;;;6.50;;
41705;SDS011;27385;51.096;17.190;2022-12-08T03:56:33;23.10;;;7.30;;
41705;SDS011;27385;51.096;17.190;2022-12-08T03:59:06;23.60;;;8.80;;
41705;SDS011;27385;51.096;17.190;2022-12-08T04:01:38;20.30;;;7.80;;
41705;SDS011;27385;51.096;17.190;2022-12-08T04:04:10;21.70;;;7.80;;
41705;SDS011;27385;51.096;17.190;2022-12-08T04:06:42;23.20;;;7.80;;
41705;SDS011;27385;51.096;17.190;2022-12-08T04:09:15;21.30;;;7.10;;
41705;SDS011;27385;51.096;17.190;2022-12-08T04:11:46;21.00;;;5.80;;
41705;SDS011;27385;51.096;17.190;2022-12-08T04:14:20;17.40;;;6.60;;
41705;SDS011;27385;51.096;17.190;2022-12-08T04:16:52;21.80;;;8.30;;
41705;SDS011;27385;51.096;17.190;2022-12-08T04:19:24;23.50;;;9.90;;
41705;SDS011;27385;51.096;17.190;2022-12-08T04:21:55;26.10;;;10.80;;
41705;SDS011;27385;51.096;17.190;2022-12-08T04:24:26;25.40;;;10.30;;
41705;SDS011;27385;51.096;17.190;2022-12-08T04:26:58;24.60;;;11.00;;
41705;SDS011;27385;51.096;17.190;2022-12-08T04:29:29;21.90;;;8.80;;
41705;SDS011;27385;51.096;17.190;2022-12-08T04:32:00;19.80;;;7.20;;
41705;SDS011;27385;51.096;17.190;2022-12-08T04:34:32;22.00;;;7.60;;
41705;SDS011;27385;51.096;17.190;2022-12-08T04:37:03;19.70;;;8.30;;
41705;SDS011;27385;51.096;17.190;2022-12-08T04:39:35;21.30;;;7.50;;
41705;SDS011;27385;51.096;17.190;2022-12-08T04:42:06;18.60;;;7.10;;
41705;SDS011;27385;51.096;17.190;2022-12-08T04:44:42;25.00;;;7.70;;
41705;SDS011;27385;51.096;17.190;2022-12-08T04:47:13;28.70;;;8.90;;
41705;SDS011;27385;51.096;17.190;2022-12-08T04:49:44;21.30;;;8.00;;
41705;SDS011;27385;51.096;17.190;2022-12-08T04:52:16;22.40;;;8.40;;
41705;SDS011;27385;51.096;17.190;2022-12-08T04:54:47;29.70;;;9.40;;
41705;SDS011;27385;51.096;17.190;2022-12-08T04:57:20;21.90;;;7.90;;
41705;SDS011;27385;51.096;17.190;2022-12-08T04:59:52;22.00;;;8.90;;
41705;SDS011;27385;51.096;17.190;2022-12-08T05:02:23;16.50;;;7.00;;
41705;SDS011;27385;51.096;17.190;2022-12-08T05:04:56;18.00;;;7.50;;
41705;SDS011;27385;51.096;17.190;2022-12-08T05:07:28;20.40;;;8.40;;
41705;SDS011;27385;51.096;17.190;2022-12-08T05:09:59;18.90;;;7.40;;
41705;SDS011;27385;51.096;17.190;2022-12-08T05:12:32;22.80;;;9.40;;
41705;SDS011;27385;51.096;17.190;2022-12-08T05:15:03;22.70;;;9.30;;
41705;SDS011;27385;51.096;17.190;2022-12-08T05:17:37;23.60;;;9.70;;
41705;SDS011;27385;51.096;17.190;2022-12-08T05:20:09;25.60;;;9.30;;
41705;SDS011;27385;51.096;17.190;2022-12-08T05:22:41;18.40;;;7.30;;
41705;SDS011;27385;51.096;17.190;2022-12-08T05:25:13;22.40;;;8.90;;
41705;SDS011;27385;51.096;17.190;2022-12-08T05:27:45;20.60;;;8.20;;
41705;SDS011;27385;51.096;17.190;2022-12-08T05:30:19;21.40;;;8.80;;
41705;SDS011;27385;51.096;17.190;2022-12-08T05:32:51;22.60;;;9.10;;
41705;SDS011;27385;51.096;17.190;2022-12-08T05:35:22;25.90;;;9.40;;
41705;SDS011;27385;51.096;17.190;2022-12-08T05:37:54;20.20;;;8.10;;
41705;SDS011;27385;51.096;17.190;2022-12-08T05:40:25;27.10;;;9.70;;
41705;SDS011;27385;51.096;17.190;2022-12-08T05:42:56;26.00;;;9.90;;
41705;SDS011;27385;51.096;17.190;2022-12-08T05:45:28;31.00;;;10.10;;
41705;SDS011;27385;51.096;17.190;2022-12-08T05:47:59;22.80;;;8.40;;
41705;SDS011;27385;51.096;17.190;2022-12-08T05:50:32;22.90;;;10.00;;
41705;SDS011;27385;51.096;17.190;2022-12-08T05:53:04;23.60;;;9.90;;
41705;SDS011;27385;51.096;17.190;2022-12-08T05:55:35;27.90;;;10.80;;
41705;SDS011;27385;51.096;17.190;2022-12-08T05:58:06;25.10;;;10.00;;
41705;SDS011;27385;51.096;17.190;2022-12-08T06:00:44;27.00;;;10.50;;
41705;SDS011;27385;51.096;17.190;2022-12-08T06:03:16;26.20;;;9.00;;
41705;SDS011;27385;51.096;17.190;2022-12-08T06:05:48;24.40;;;9.60;;
41705;SDS011;27385;51.096;17.190;2022-12-08T06:08:19;22.20;;;8.90;;
41705;SDS011;27385;51.096;17.190;2022-12-08T06:10:51;24.40;;;10.10;;
41705;SDS011;27385;51.096;17.190;2022-12-08T06:13:23;28.80;;;11.90;;
41705;SDS011;27385;51.096;17.190;2022-12-08T06:15:55;37.20;;;13.50;;
41705;SDS011;27385;51.096;17.190;2022-12-08T06:18:34;34.00;;;13.10;;
41705;SDS011;27385;51.096;17.190;2022-12-08T06:21:06;27.30;;;10.90;;
41705;SDS011;27385;51.096;17.190;2022-12-08T06:23:38;26.40;;;10.50;;
41705;SDS011;27385;51.096;17.190;2022-12-08T06:26:11;28.50;;;11.50;;
41705;SDS011;27385;51.096;17.190;2022-12-08T06:28:43;28.80;;;11.30;;
41705;SDS011;27385;51.096;17.190;2022-12-08T06:31:15;28.40;;;10.90;;
41705;SDS011;27385;51.096;17.190;2022-12-08T06:33:48;29.80;;;10.60;;
41705;SDS011;27385;51.096;17.190;2022-12-08T06:36:21;28.00;;;9.30;;
41705;SDS011;27385;51.096;17.190;2022-12-08T06:38:54;29.90;;;12.00;;
41705;SDS011;27385;51.096;17.190;2022-12-08T06:41:27;27.60;;;11.40;;
41705;SDS011;27385;51.096;17.190;2022-12-08T06:43:58;28.40;;;10.90;;
41705;SDS011;27385;51.096;17.190;2022-12-08T06:46:30;30.10;;;11.70;;
41705;SDS011;27385;51.096;17.190;2022-12-08T06:49:01;26.80;;;10.20;;
41705;SDS011;27385;51.096;17.190;2022-12-08T06:51:33;28.80;;;12.30;;
41705;SDS011;27385;51.096;17.190;2022-12-08T06:54:05;24.70;;;10.80;;
41705;SDS011;27385;51.096;17.190;2022-12-08T06:56:36;26.30;;;10.40;;
41705;SDS011;27385;51.096;17.190;2022-12-08T06:59:08;29.40;;;12.20;;
41705;SDS011;27385;51.096;17.190;2022-12-08T07:01:40;24.80;;;10.80;;
41705;SDS011;27385;51.096;17.190;2022-12-08T07:04:12;26.60;;;11.00;;
41705;SDS011;27385;51.096;17.190;2022-12-08T07:06:43;30.50;;;11.60;;
41705;SDS011;27385;51.096;17.190;2022-12-08T07:09:14;29.10;;;11.30;;
41705;SDS011;27385;51.096;17.190;2022-12-08T07:11:46;28.20;;;12.60;;
41705;SDS011;27385;51.096;17.190;2022-12-08T07:14:21;27.10;;;12.20;;
41705;SDS011;27385;51.096;17.190;2022-12-08T07:16:52;30.70;;;11.20;;
41705;SDS011;27385;51.096;17.190;2022-12-08T07:19:23;27.60;;;11.60;;
41705;SDS011;27385;51.096;17.190;2022-12-08T07:21:54;28.20;;;12.30;;
41705;SDS011;27385;51.096;17.190;2022-12-08T07:24:26;31.40;;;13.00;;
41705;SDS011;27385;51.096;17.190;2022-12-08T07:26:57;29.50;;;12.80;;
41705;SDS011;27385;51.096;17.190;2022-12-08T07:29:28;30.70;;;12.70;;
41705;SDS011;27385;51.096;17.190;2022-12-08T07:32:00;27.00;;;11.00;;
41705;SDS011;27385;51.096;17.190;2022-12-08T07:34:32;24.20;;;10.30;;
41705;SDS011;27385;51.096;17.190;2022-12-08T07:37:03;26.90;;;10.40;;
41705;SDS011;27385;51.096;17.190;2022-12-08T07:39:35;28.30;;;10.80;;
41705;SDS011;27385;51.096;17.190;2022-12-08T07:42:06;28.70;;;12.10;;
41705;SDS011;27385;51.096;17.190;2022-12-08T07:44:37;30.90;;;12.20;;
41705;SDS011;27385;51.096;17.190;2022-12-08T07:47:09;25.20;;;10.50;;
41705;SDS011;27385;51.096;17.190;2022-12-08T07:49:41;27.10;;;11.50;;
41705;SDS011;27385;51.096;17.190;2022-12-08T07:52:13;26.90;;;10.40;;
41705;SDS011;27385;51.096;17.190;2022-12-08T07:54:45;26.60;;;10.50;;
41705;SDS011;27385;51.096;17.190;2022-12-08T07:57:17;25.20;;;10.50;;
41705;SDS011;27385;51.096;17.190;2022-12-08T07:59:48;25.10;;;9.90;;
41705;SDS011;27385;51.096;17.190;2022-12-08T08:02:19;24.90;;;9.30;;
41705;SDS011;27385;51.096;17.190;2022-12-08T08:04:51;24.80;;;10.40;;
41705;SDS011;27385;51.096;17.190;2022-12-08T08:07:23;24.10;;;9.00;;
41705;SDS011;27385;51.096;17.190;2022-12-08T08:09:54;27.40;;;11.90;;
41705;SDS011;27385;51.096;17.190;2022-12-08T08:12:26;30.10;;;11.80;;
41705;SDS011;27385;51.096;17.190;2022-12-08T08:14:57;29.80;;;12.40;;
41705;SDS011;27385;51.096;17.190;2022-12-08T08:17:29;31.30;;;12.70;;
41705;SDS011;27385;51.096;17.190;2022-12-08T08:20:02;28.10;;;12.70;;
41705;SDS011;27385;51.096;17.190;2022-12-08T08:22:35;31.40;;;13.80;;
41705;SDS011;27385;51.096;17.190;2022-12-08T08:25:07;32.30;;;14.50;;
41705;SDS011;27385;51.096;17.190;2022-12-08T08:27:39;35.10;;;14.10;;
41705;SDS011;27385;51.096;17.190;2022-12-08T08:30:12;31.50;;;15.30;;
41705;SDS011;27385;51.096;17.190;2022-12-08T08:32:44;32.90;;;13.70;;
41705;SDS011;27385;51.096;17.190;2022-12-08T08:35:16;30.90;;;14.50;;
41705;SDS011;27385;51.096;17.190;2022-12-08T08:37:47;32.30;;;14.70;;
41705;SDS011;27385;51.096;17.190;2022-12-08T08:40:29;36.90;;;17.20;;
41705;SDS011;27385;51.096;17.190;2022-12-08T08:43:08;34.50;;;15.00;;
41705;SDS011;27385;51.096;17.190;2022-12-08T08:45:57;31.10;;;13.10;;
41705;SDS011;27385;51.096;17.190;2022-12-08T08:48:30;28.30;;;12.70;;
41705;SDS011;27385;51.096;17.190;2022-12-08T08:51:06;29.20;;;12.30;;
41705;SDS011;27385;51.096;17.190;2022-12-08T08:53:39;26.70;;;11.80;;
41705;SDS011;27385;51.096;17.190;2022-12-08T08:56:11;25.10;;;9.60;;
41705;SDS011;27385;51.096;17.190;2022-12-08T08:58:43;23.80;;;8.30;;
41705;SDS011;27385;51.096;17.190;2022-12-08T09:01:15;19.80;;;7.80;;
41705;SDS011;27385;51.096;17.190;2022-12-08T09:03:48;19.80;;;6.60;;
41705;SDS011;27385;51.096;17.190;2022-12-08T09:06:19;19.90;;;7.00;;
41705;SDS011;27385;51.096;17.190;2022-12-08T09:08:51;17.40;;;7.20;;
41705;SDS011;27385;51.096;17.190;2022-12-08T09:11:23;16.80;;;5.90;;
41705;SDS011;27385;51.096;17.190;2022-12-08T09:13:54;18.10;;;6.00;;
41705;SDS011;27385;51.096;17.190;2022-12-08T09:16:25;22.60;;;7.80;;
41705;SDS011;27385;51.096;17.190;2022-12-08T09:18:57;17.40;;;5.80;;
41705;SDS011;27385;51.096;17.190;2022-12-08T09:21:29;16.60;;;6.10;;
41705;SDS011;27385;51.096;17.190;2022-12-08T09:24:00;18.00;;;6.60;;
41705;SDS011;27385;51.096;17.190;2022-12-08T09:26:32;18.30;;;6.50;;
41705;SDS011;27385;51.096;17.190;2022-12-08T09:29:03;16.50;;;6.00;;
41705;SDS011;27385;51.096;17.190;2022-12-08T09:31:35;16.90;;;6.50;;
41705;SDS011;27385;51.096;17.190;2022-12-08T09:34:07;15.50;;;4.80;;
41705;SDS011;27385;51.096;17.190;2022-12-08T09:36:39;17.10;;;5.90;;
41705;SDS011;27385;51.096;17.190;2022-12-08T09:39:13;15.50;;;4.70;;
41705;SDS011;27385;51.096;17.190;2022-12-08T09:41:46;15.90;;;4.80;;
41705;SDS011;27385;51.096;17.190;2022-12-08T09:47:17;15.00;;;4.70;;
41705;SDS011;27385;51.096;17.190;2022-12-08T09:49:53;15.70;;;5.20;;
41705;SDS011;27385;51.096;17.190;2022-12-08T09:52:30;14.90;;;5.50;;
41705;SDS011;27385;51.096;17.190;2022-12-08T09:55:10;17.30;;;5.50;;
41705;SDS011;27385;51.096;17.190;2022-12-08T09:57:54;16.50;;;4.20;;
41705;SDS011;27385;51.096;17.190;2022-12-08T10:00:31;15.30;;;4.90;;
41705;SDS011;27385;51.096;17.190;2022-12-08T10:03:03;14.60;;;4.00;;
41705;SDS011;27385;51.096;17.190;2022-12-08T10:05:35;16.30;;;5.00;;
41705;SDS011;27385;51.096;17.190;2022-12-08T10:08:11;15.60;;;6.10;;
41705;SDS011;27385;51.096;17.190;2022-12-08T10:10:53;17.10;;;6.60;;
41705;SDS011;27385;51.096;17.190;2022-12-08T10:13:30;17.60;;;5.80;;
41705;SDS011;27385;51.096;17.190;2022-12-08T10:16:10;14.30;;;5.00;;
41705;SDS011;27385;51.096;17.190;2022-12-08T10:18:54;12.50;;;3.90;;
41705;SDS011;27385;51.096;17.190;2022-12-08T10:21:29;14.00;;;4.70;;
41705;SDS011;27385;51.096;17.190;2022-12-08T10:24:03;14.60;;;4.50;;
41705;SDS011;27385;51.096;17.190;2022-12-08T10:26:41;14.10;;;4.60;;
41705;SDS011;27385;51.096;17.190;2022-12-08T10:29:14;13.90;;;5.20;;
41705;SDS011;27385;51.096;17.190;2022-12-08T10:31:46;15.70;;;5.20;;
41705;SDS011;27385;51.096;17.190;2022-12-08T10:34:18;14.20;;;4.70;;
41705;SDS011;27385;51.096;17.190;2022-12-08T10:36:53;14.00;;;5.20;;
41705;SDS011;27385;51.096;17.190;2022-12-08T10:39:32;16.70;;;5.20;;
41705;SDS011;27385;51.096;17.190;2022-12-08T10:42:18;15.70;;;5.60;;
41705;SDS011;27385;51.096;17.190;2022-12-08T10:44:53;18.20;;;5.00;;
41705;SDS011;27385;51.096;17.190;2022-12-08T10:47:34;16.70;;;5.80;;
41705;SDS011;27385;51.096;17.190;2022-12-08T10:50:08;15.70;;;5.00;;
41705;SDS011;27385;51.096;17.190;2022-12-08T10:55:22;16.10;;;5.90;;
41705;SDS011;27385;51.096;17.190;2022-12-08T10:57:55;15.10;;;5.10;;
41705;SDS011;27385;51.096;17.190;2022-12-08T11:00:26;18.70;;;6.20;;
41705;SDS011;27385;51.096;17.190;2022-12-08T11:02:59;15.50;;;5.60;;
41705;SDS011;27385;51.096;17.190;2022-12-08T11:05:32;15.60;;;6.10;;
41705;SDS011;27385;51.096;17.190;2022-12-08T11:08:05;16.90;;;5.90;;
41705;SDS011;27385;51.096;17.190;2022-12-08T11:10:43;17.10;;;5.80;;
41705;SDS011;27385;51.096;17.190;2022-12-08T11:13:15;17.20;;;6.00;;
41705;SDS011;27385;51.096;17.190;2022-12-08T11:15:51;18.80;;;5.60;;
41705;SDS011;27385;51.096;17.190;2022-12-08T11:18:26;16.30;;;5.60;;
41705;SDS011;27385;51.096;17.190;2022-12-08T11:21:09;16.00;;;4.80;;
41705;SDS011;27385;51.096;17.190;2022-12-08T11:23:47;16.20;;;6.20;;
41705;SDS011;27385;51.096;17.190;2022-12-08T11:26:22;16.50;;;4.90;;
41705;SDS011;27385;51.096;17.190;2022-12-08T11:28:58;16.70;;;5.40;;
41705;SDS011;27385;51.096;17.190;2022-12-08T11:31:30;14.20;;;4.60;;
41705;SDS011;27385;51.096;17.190;2022-12-08T11:34:09;15.80;;;5.00;;
41705;SDS011;27385;51.096;17.190;2022-12-08T11:36:49;16.60;;;6.00;;
41705;SDS011;27385;51.096;17.190;2022-12-08T11:39:22;17.30;;;5.40;;
41705;SDS011;27385;51.096;17.190;2022-12-08T11:41:58;18.20;;;6.80;;
41705;SDS011;27385;51.096;17.190;2022-12-08T11:44:34;21.30;;;6.00;;
41705;SDS011;27385;51.096;17.190;2022-12-08T11:47:11;17.60;;;5.50;;
41705;SDS011;27385;51.096;17.190;2022-12-08T11:49:48;18.00;;;6.10;;
41705;SDS011;27385;51.096;17.190;2022-12-08T11:52:28;16.10;;;4.80;;
41705;SDS011;27385;51.096;17.190;2022-12-08T11:55:16;17.30;;;6.20;;
41705;SDS011;27385;51.096;17.190;2022-12-08T11:57:57;20.50;;;5.90;;
41705;SDS011;27385;51.096;17.190;2022-12-08T12:00:40;15.40;;;5.00;;
41705;SDS011;27385;51.096;17.190;2022-12-08T12:03:15;16.90;;;4.60;;
41705;SDS011;27385;51.096;17.190;2022-12-08T12:05:58;17.60;;;5.80;;
41705;SDS011;27385;51.096;17.190;2022-12-08T12:08:47;16.60;;;5.90;;
41705;SDS011;27385;51.096;17.190;2022-12-08T12:11:29;15.30;;;5.30;;
41705;SDS011;27385;51.096;17.190;2022-12-08T12:14:31;13.30;;;4.40;;
41705;SDS011;27385;51.096;17.190;2022-12-08T12:17:28;15.50;;;4.30;;
41705;SDS011;27385;51.096;17.190;2022-12-08T12:20:10;14.80;;;4.60;;
41705;SDS011;27385;51.096;17.190;2022-12-08T12:22:47;15.60;;;5.00;;
41705;SDS011;27385;51.096;17.190;2022-12-08T12:25:23;12.30;;;4.00;;
41705;SDS011;27385;51.096;17.190;2022-12-08T12:27:57;14.20;;;4.20;;
41705;SDS011;27385;51.096;17.190;2022-12-08T12:30:33;18.10;;;5.40;;
41705;SDS011;27385;51.096;17.190;2022-12-08T12:33:22;19.30;;;5.60;;
41705;SDS011;27385;51.096;17.190;2022-12-08T12:35:55;17.30;;;5.70;;
41705;SDS011;27385;51.096;17.190;2022-12-08T12:38:32;17.10;;;6.10;;
41705;SDS011;27385;51.096;17.190;2022-12-08T12:41:24;24.90;;;6.70;;
41705;SDS011;27385;51.096;17.190;2022-12-08T12:46:54;21.20;;;7.90;;
41705;SDS011;27385;51.096;17.190;2022-12-08T12:55:23;21.20;;;6.60;;
41705;SDS011;27385;51.096;17.190;2022-12-08T12:58:19;19.40;;;6.80;;
41705;SDS011;27385;51.096;17.190;2022-12-08T13:04:28;18.20;;;6.00;;
41705;SDS011;27385;51.096;17.190;2022-12-08T13:07:03;21.00;;;6.80;;
41705;SDS011;27385;51.096;17.190;2022-12-08T13:09:36;19.50;;;7.20;;
41705;SDS011;27385;51.096;17.190;2022-12-08T13:12:09;18.10;;;6.00;;
41705;SDS011;27385;51.096;17.190;2022-12-08T13:14:50;15.00;;;6.20;;
41705;SDS011;27385;51.096;17.190;2022-12-08T13:17:26;18.30;;;6.40;;
41705;SDS011;27385;51.096;17.190;2022-12-08T13:19:59;17.50;;;6.10;;
41705;SDS011;27385;51.096;17.190;2022-12-08T13:23:00;20.70;;;5.90;;
41705;SDS011;27385;51.096;17.190;2022-12-08T13:31:46;17.40;;;6.50;;
41705;SDS011;27385;51.096;17.190;2022-12-08T13:34:20;17.90;;;6.60;;
41705;SDS011;27385;51.096;17.190;2022-12-08T13:37:19;18.30;;;6.50;;
41705;SDS011;27385;51.096;17.190;2022-12-08T13:39:55;18.60;;;6.10;;
41705;SDS011;27385;51.096;17.190;2022-12-08T13:42:34;18.60;;;5.80;;
41705;SDS011;27385;51.096;17.190;2022-12-08T13:45:15;15.50;;;5.90;;
41705;SDS011;27385;51.096;17.190;2022-12-08T13:47:52;18.70;;;6.30;;
41705;SDS011;27385;51.096;17.190;2022-12-08T13:50:27;18.60;;;5.60;;
41705;SDS011;27385;51.096;17.190;2022-12-08T13:53:04;19.90;;;7.10;;
41705;SDS011;27385;51.096;17.190;2022-12-08T13:55:43;13.40;;;5.30;;
41705;SDS011;27385;51.096;17.190;2022-12-08T13:58:18;18.80;;;5.60;;
41705;SDS011;27385;51.096;17.190;2022-12-08T14:00:56;16.30;;;5.00;;
41705;SDS011;27385;51.096;17.190;2022-12-08T14:03:42;17.50;;;5.80;;
41705;SDS011;27385;51.096;17.190;2022-12-08T14:06:16;20.10;;;5.60;;
41705;SDS011;27385;51.096;17.190;2022-12-08T14:08:53;16.50;;;5.90;;
41705;SDS011;27385;51.096;17.190;2022-12-08T14:11:28;20.90;;;7.70;;
41705;SDS011;27385;51.096;17.190;2022-12-08T14:14:05;18.80;;;7.20;;
41705;SDS011;27385;51.096;17.190;2022-12-08T14:16:41;22.90;;;8.20;;
41705;SDS011;27385;51.096;17.190;2022-12-08T14:19:20;25.10;;;8.60;;
41705;SDS011;27385;51.096;17.190;2022-12-08T14:21:54;27.80;;;9.00;;
41705;SDS011;27385;51.096;17.190;2022-12-08T14:24:27;23.50;;;8.60;;
41705;SDS011;27385;51.096;17.190;2022-12-08T14:27:01;28.00;;;11.00;;
41705;SDS011;27385;51.096;17.190;2022-12-08T14:29:41;30.30;;;14.60;;
41705;SDS011;27385;51.096;17.190;2022-12-08T14:32:21;28.00;;;13.00;;
41705;SDS011;27385;51.096;17.190;2022-12-08T14:34:55;32.60;;;13.80;;
41705;SDS011;27385;51.096;17.190;2022-12-08T14:37:30;33.50;;;14.70;;
41705;SDS011;27385;51.096;17.190;2022-12-08T14:40:04;29.40;;;12.80;;
41705;SDS011;27385;51.096;17.190;2022-12-08T14:42:46;32.00;;;13.70;;
41705;SDS011;27385;51.096;17.190;2022-12-08T14:45:19;30.60;;;14.10;;
41705;SDS011;27385;51.096;17.190;2022-12-08T14:47:51;28.10;;;11.80;;
41705;SDS011;27385;51.096;17.190;2022-12-08T14:50:38;26.20;;;10.40;;
41705;SDS011;27385;51.096;17.190;2022-12-08T14:53:13;34.60;;;15.60;;
41705;SDS011;27385;51.096;17.190;2022-12-08T14:55:46;34.90;;;14.10;;
41705;SDS011;27385;51.096;17.190;2022-12-08T14:58:19;48.30;;;19.60;;
41705;SDS011;27385;51.096;17.190;2022-12-08T15:00:55;44.50;;;18.30;;
41705;SDS011;27385;51.096;17.190;2022-12-08T15:03:28;46.00;;;19.20;;
41705;SDS011;27385;51.096;17.190;2022-12-08T15:06:02;41.20;;;17.80;;
41705;SDS011;27385;51.096;17.190;2022-12-08T15:08:49;43.10;;;20.00;;
41705;SDS011;27385;51.096;17.190;2022-12-08T15:11:29;48.60;;;22.50;;
41705;SDS011;27385;51.096;17.190;2022-12-08T15:14:02;45.90;;;19.50;;
41705;SDS011;27385;51.096;17.190;2022-12-08T15:16:54;46.00;;;21.00;;
41705;SDS011;27385;51.096;17.190;2022-12-08T15:19:28;47.30;;;17.90;;
41705;SDS011;27385;51.096;17.190;2022-12-08T15:22:08;45.90;;;19.10;;
41705;SDS011;27385;51.096;17.190;2022-12-08T15:24:50;47.40;;;19.70;;
41705;SDS011;27385;51.096;17.190;2022-12-08T15:27:22;52.60;;;23.40;;
41705;SDS011;27385;51.096;17.190;2022-12-08T15:29:55;69.50;;;33.90;;
41705;SDS011;27385;51.096;17.190;2022-12-08T15:32:27;89.60;;;40.00;;
41705;SDS011;27385;51.096;17.190;2022-12-08T15:34:58;83.70;;;39.30;;
41705;SDS011;27385;51.096;17.190;2022-12-08T15:37:30;97.00;;;45.60;;